createdAt,value
2018-08-11T00:00:09.973Z,17.26
2018-08-11T00:01:09.962Z,17.34
2018-08-11T00:02:09.974Z,17.23
2018-08-11T00:03:09.969Z,17.23
2018-08-11T00:04:09.926Z,17.30
2018-08-11T00:05:09.916Z,17.27
2018-08-11T00:06:09.907Z,17.20
2018-08-11T00:07:09.892Z,17.27
2018-08-11T00:08:09.900Z,17.30
2018-08-11T00:09:09.869Z,17.30
2018-08-11T00:10:09.858Z,17.30
2018-08-11T00:11:09.853Z,17.39
2018-08-11T00:12:09.839Z,17.41
2018-08-11T00:13:09.848Z,17.33
2018-08-11T00:14:09.826Z,17.36
2018-08-11T00:15:09.806Z,17.48
2018-08-11T00:16:09.802Z,17.41
2018-08-11T00:17:09.805Z,17.39
2018-08-11T00:18:09.803Z,17.38
2018-08-11T00:19:09.758Z,17.36
2018-08-11T00:20:09.750Z,17.36
2018-08-11T00:21:09.747Z,17.42
2018-08-11T00:22:09.725Z,17.38
2018-08-11T00:23:09.725Z,17.42
2018-08-11T00:24:09.731Z,17.39
2018-08-11T00:25:09.697Z,17.52
2018-08-11T00:26:09.689Z,17.52
2018-08-11T00:27:09.683Z,17.52
2018-08-11T00:28:09.676Z,17.57
2018-08-11T00:29:09.674Z,17.44
2018-08-11T00:30:09.640Z,17.42
2018-08-11T00:31:09.636Z,17.42
2018-08-11T00:32:09.628Z,17.41
2018-08-11T00:33:09.622Z,17.44
2018-08-11T00:34:09.627Z,17.45
2018-08-11T00:35:09.594Z,17.41
2018-08-11T00:36:09.582Z,17.44
2018-08-11T00:37:09.569Z,17.54
2018-08-11T00:38:09.560Z,17.57
2018-08-11T00:39:09.561Z,17.52
2018-08-11T00:40:09.550Z,17.51
2018-08-11T00:41:09.532Z,17.54
2018-08-11T00:42:09.510Z,17.54
2018-08-11T00:43:09.505Z,17.52
2018-08-11T00:44:09.512Z,17.36
2018-08-11T00:45:09.482Z,17.31
2018-08-11T00:46:09.473Z,17.26
2018-08-11T00:47:09.455Z,17.29
2018-08-11T00:48:09.447Z,17.30
2018-08-11T00:49:09.485Z,17.38
2018-08-11T00:50:09.429Z,17.27
2018-08-11T00:51:09.413Z,17.24
2018-08-11T00:52:09.405Z,17.19
2018-08-11T00:53:09.393Z,17.11
2018-08-11T00:54:09.381Z,17.11
2018-08-11T00:55:09.398Z,17.05
2018-08-11T00:56:09.369Z,16.93
2018-08-11T00:57:09.355Z,17.04
2018-08-11T00:58:09.351Z,17.06
2018-08-11T00:59:09.330Z,16.96
2018-08-11T01:00:09.348Z,17.04
2018-08-11T01:01:09.310Z,16.90
2018-08-11T01:02:09.292Z,16.90
2018-08-11T01:03:09.292Z,16.81
2018-08-11T01:04:09.283Z,16.94
2018-08-11T01:05:09.263Z,16.97
2018-08-11T01:06:09.267Z,17.09
2018-08-11T01:07:09.253Z,17.01
2018-08-11T01:08:09.243Z,17.02
2018-08-11T01:09:09.231Z,17.05
2018-08-11T01:10:09.214Z,17.04
2018-08-11T01:11:09.237Z,17.05
2018-08-11T01:12:09.190Z,16.84
2018-08-11T01:13:09.187Z,16.91
2018-08-11T01:14:09.162Z,16.83
2018-08-11T01:15:09.158Z,16.90
2018-08-11T01:16:09.190Z,16.99
2018-08-11T01:17:09.135Z,17.02
2018-08-11T01:18:09.125Z,16.99
2018-08-11T01:19:09.109Z,17.06
2018-08-11T01:20:09.100Z,17.14
2018-08-11T01:21:09.091Z,17.19
2018-08-11T01:22:09.105Z,17.02
2018-08-11T01:23:09.065Z,17.05
2018-08-11T01:24:09.059Z,17.05
2018-08-11T01:25:09.046Z,17.15
2018-08-11T01:26:09.040Z,17.05
2018-08-11T01:27:09.051Z,17.02
2018-08-11T01:28:09.016Z,17.02
2018-08-11T01:29:09.005Z,17.11
2018-08-11T01:30:08.996Z,17.01
2018-08-11T01:31:08.978Z,17.02
2018-08-11T01:32:08.999Z,17.06
2018-08-11T01:33:08.963Z,17.04
2018-08-11T01:34:08.946Z,17.04
2018-08-11T01:35:08.944Z,17.05
2018-08-11T01:36:08.931Z,17.09
2018-08-11T01:37:15.841Z,17.01
2018-08-11T01:38:08.935Z,16.87
2018-08-11T01:39:08.909Z,16.69
2018-08-11T01:40:08.903Z,16.61
2018-08-11T01:41:08.874Z,16.50
2018-08-11T01:42:08.865Z,16.42
2018-08-11T01:43:08.850Z,16.31
2018-08-11T01:44:08.862Z,16.29
2018-08-11T01:45:08.847Z,16.13
2018-08-11T01:46:08.832Z,16.13
2018-08-11T01:47:08.813Z,16.10
2018-08-11T01:48:08.798Z,16.08
2018-08-11T01:49:08.786Z,16.02
2018-08-11T01:50:08.807Z,15.88
2018-08-11T01:51:08.760Z,15.82
2018-08-11T01:52:08.751Z,15.77
2018-08-11T01:53:08.761Z,15.65
2018-08-11T01:54:08.735Z,15.54
2018-08-11T01:55:08.745Z,15.44
2018-08-11T01:56:08.710Z,15.43
2018-08-11T01:57:08.698Z,15.29
2018-08-11T01:58:08.688Z,15.27
2018-08-11T01:59:08.680Z,15.14
2018-08-11T02:00:08.670Z,15.00
2018-08-11T02:01:08.676Z,14.86
2018-08-11T02:02:08.649Z,14.77
2018-08-11T02:03:08.636Z,14.70
2018-08-11T02:04:08.635Z,14.48
2018-08-11T02:05:08.611Z,14.33
2018-08-11T02:06:08.655Z,14.07
2018-08-11T02:07:08.622Z,13.89
2018-08-11T02:08:08.582Z,13.74
2018-08-11T02:09:08.572Z,13.59
2018-08-11T02:10:08.555Z,13.50
2018-08-11T02:11:08.580Z,13.41
2018-08-11T02:12:08.541Z,13.44
2018-08-11T02:13:08.530Z,13.35
2018-08-11T02:14:08.523Z,13.27
2018-08-11T02:15:08.501Z,13.28
2018-08-11T02:16:08.512Z,13.28
2018-08-11T02:17:08.492Z,13.27
2018-08-11T02:18:08.469Z,13.19
2018-08-11T02:19:08.474Z,13.15
2018-08-11T02:20:08.451Z,13.18
2018-08-11T02:21:08.459Z,13.15
2018-08-11T02:22:08.432Z,13.12
2018-08-11T02:23:08.418Z,13.15
2018-08-11T02:24:08.405Z,13.18
2018-08-11T02:25:08.424Z,13.16
2018-08-11T02:26:08.409Z,13.05
2018-08-11T02:27:08.393Z,13.15
2018-08-11T02:28:08.362Z,13.05
2018-08-11T02:29:08.351Z,13.03
2018-08-11T02:30:08.342Z,13.03
2018-08-11T02:31:08.354Z,13.00
2018-08-11T02:32:08.325Z,13.04
2018-08-11T02:33:08.331Z,12.95
2018-08-11T02:34:08.340Z,12.91
2018-08-11T02:35:08.286Z,12.95
2018-08-11T02:36:08.296Z,12.95
2018-08-11T02:37:08.267Z,13.01
2018-08-11T02:38:08.263Z,12.97
2018-08-11T02:39:08.254Z,12.93
2018-08-11T02:40:08.241Z,12.93
2018-08-11T02:41:08.240Z,12.91
2018-08-11T02:42:08.211Z,12.93
2018-08-11T02:43:08.219Z,12.93
2018-08-11T02:44:08.196Z,12.97
2018-08-11T02:45:08.186Z,12.85
2018-08-11T02:46:08.220Z,12.87
2018-08-11T02:47:08.184Z,12.90
2018-08-11T02:48:08.233Z,12.91
2018-08-11T02:49:08.157Z,12.97
2018-08-11T02:50:08.150Z,12.94
2018-08-11T02:51:08.139Z,12.94
2018-08-11T02:52:08.115Z,13.00
2018-08-11T02:53:08.099Z,13.00
2018-08-11T02:54:08.084Z,13.03
2018-08-11T02:55:08.081Z,13.01
2018-08-11T02:56:08.084Z,13.01
2018-08-11T02:57:08.067Z,12.97
2018-08-11T02:58:08.044Z,12.93
2018-08-11T02:59:08.029Z,12.94
2018-08-11T03:00:08.023Z,12.90
2018-08-11T03:01:08.055Z,12.94
2018-08-11T03:02:08.009Z,12.94
2018-08-11T03:03:07.990Z,12.93
2018-08-11T03:04:08.000Z,12.93
2018-08-11T03:05:07.981Z,12.90
2018-08-11T03:06:07.980Z,12.90
2018-08-11T03:07:07.947Z,12.86
2018-08-11T03:08:07.957Z,12.86
2018-08-11T03:09:07.930Z,12.91
2018-08-11T03:10:07.939Z,12.86
2018-08-11T03:11:07.927Z,12.83
2018-08-11T03:12:07.900Z,12.86
2018-08-11T03:13:07.877Z,12.82
2018-08-11T03:14:07.928Z,12.82
2018-08-11T03:15:07.924Z,12.72
2018-08-11T03:16:07.869Z,12.80
2018-08-11T03:17:07.851Z,12.79
2018-08-11T03:18:07.823Z,12.80
2018-08-11T03:19:07.823Z,12.76
2018-08-11T03:20:07.804Z,12.76
2018-08-11T03:21:07.814Z,12.78
2018-08-11T03:22:07.801Z,12.73
2018-08-11T03:23:07.774Z,12.82
2018-08-11T03:24:07.765Z,12.83
2018-08-11T03:25:07.779Z,12.68
2018-08-11T03:26:07.756Z,12.73
2018-08-11T03:27:07.724Z,12.76
2018-08-11T03:28:07.720Z,12.76
2018-08-11T03:29:07.707Z,12.67
2018-08-11T03:30:07.807Z,12.68
2018-08-11T03:31:07.701Z,12.75
2018-08-11T03:32:07.671Z,12.65
2018-08-11T03:33:07.668Z,12.70
2018-08-11T03:34:07.664Z,12.65
2018-08-11T03:35:07.659Z,12.68
2018-08-11T03:36:07.668Z,12.65
2018-08-11T03:37:07.627Z,12.79
2018-08-11T03:38:07.608Z,12.64
2018-08-11T03:39:07.595Z,12.78
2018-08-11T03:40:07.588Z,12.65
2018-08-11T03:41:07.600Z,12.73
2018-08-11T03:42:07.617Z,12.70
2018-08-11T03:43:07.559Z,12.72
2018-08-11T03:44:07.557Z,12.64
2018-08-11T03:45:07.548Z,12.72
2018-08-11T03:46:07.578Z,12.67
2018-08-11T03:47:07.519Z,12.64
2018-08-11T03:48:07.513Z,12.60
2018-08-11T03:49:07.491Z,12.58
2018-08-11T03:50:07.496Z,12.43
2018-08-11T03:51:07.485Z,12.45
2018-08-11T03:52:07.454Z,12.50
2018-08-11T03:53:07.450Z,12.40
2018-08-11T03:54:07.444Z,12.37
2018-08-11T03:55:07.430Z,12.29
2018-08-11T03:56:07.442Z,12.27
2018-08-11T03:57:07.444Z,12.18
2018-08-11T03:58:07.394Z,12.22
2018-08-11T03:59:07.385Z,12.22
2018-08-11T04:00:07.375Z,12.21
2018-08-11T04:01:07.388Z,12.27
2018-08-11T04:02:07.400Z,12.13
2018-08-11T04:03:07.341Z,12.18
2018-08-11T04:04:07.358Z,12.17
2018-08-11T04:05:07.320Z,12.10
2018-08-11T04:06:07.330Z,12.06
2018-08-11T04:07:07.387Z,11.90
2018-08-11T04:08:07.296Z,11.99
2018-08-11T04:09:07.292Z,12.02
2018-08-11T04:10:07.269Z,11.99
2018-08-11T04:11:07.270Z,11.99
2018-08-11T04:12:07.241Z,12.04
2018-08-11T04:13:07.253Z,11.97
2018-08-11T04:14:07.220Z,11.87
2018-08-11T04:15:07.215Z,11.86
2018-08-11T04:16:07.213Z,11.90
2018-08-11T04:17:07.188Z,11.86
2018-08-11T04:18:07.177Z,11.99
2018-08-11T04:19:07.238Z,12.03
2018-08-11T04:20:07.173Z,11.91
2018-08-11T04:21:07.165Z,11.91
2018-08-11T04:22:07.132Z,11.90
2018-08-11T04:23:07.131Z,11.87
2018-08-11T04:24:07.122Z,11.91
2018-08-11T04:25:07.141Z,11.88
2018-08-11T04:26:07.201Z,11.87
2018-08-11T04:27:07.081Z,11.87
2018-08-11T04:28:07.075Z,11.88
2018-08-11T04:29:07.057Z,11.94
2018-08-11T04:30:07.045Z,11.97
2018-08-11T04:31:07.064Z,11.91
2018-08-11T04:32:07.036Z,11.90
2018-08-11T04:33:07.014Z,11.88
2018-08-11T04:34:07.011Z,11.88
2018-08-11T04:35:06.990Z,11.84
2018-08-11T04:36:07.013Z,11.91
2018-08-11T04:37:06.972Z,11.90
2018-08-11T04:38:06.975Z,11.90
2018-08-11T04:39:06.973Z,11.99
2018-08-11T04:40:06.947Z,11.99
2018-08-11T04:41:06.957Z,11.91
2018-08-11T04:42:06.979Z,12.09
2018-08-11T04:43:06.947Z,12.12
2018-08-11T04:44:06.909Z,12.09
2018-08-11T04:45:06.884Z,12.15
2018-08-11T04:46:06.976Z,12.15
2018-08-11T04:47:06.872Z,12.27
2018-08-11T04:48:06.847Z,12.35
2018-08-11T04:49:06.839Z,12.32
2018-08-11T04:50:06.830Z,12.39
2018-08-11T04:51:06.843Z,12.43
2018-08-11T04:52:06.818Z,12.46
2018-08-11T04:53:06.811Z,12.53
2018-08-11T04:54:06.785Z,12.60
2018-08-11T04:55:06.773Z,12.70
2018-08-11T04:56:06.780Z,12.79
2018-08-11T04:57:06.759Z,12.73
2018-08-11T04:58:06.794Z,12.78
2018-08-11T04:59:06.737Z,12.79
2018-08-11T05:00:06.725Z,12.91
2018-08-11T05:01:06.741Z,12.87
2018-08-11T05:02:06.698Z,12.93
2018-08-11T05:03:06.689Z,13.15
2018-08-11T05:04:06.693Z,13.11
2018-08-11T05:05:06.669Z,13.13
2018-08-11T05:06:06.682Z,13.18
2018-08-11T05:07:06.652Z,13.15
2018-08-11T05:08:06.718Z,13.20
2018-08-11T05:09:06.623Z,13.37
2018-08-11T05:10:06.625Z,13.38
2018-08-11T05:11:06.628Z,13.37
2018-08-11T05:12:06.601Z,13.46
2018-08-11T05:13:06.582Z,13.42
2018-08-11T05:14:06.567Z,13.47
2018-08-11T05:15:06.557Z,13.60
2018-08-11T05:16:06.758Z,13.57
2018-08-11T05:17:06.536Z,13.65
2018-08-11T05:18:06.532Z,13.68
2018-08-11T05:19:06.517Z,13.74
2018-08-11T05:20:06.507Z,13.74
2018-08-11T05:21:06.526Z,13.83
2018-08-11T05:22:06.524Z,13.85
2018-08-11T05:23:06.475Z,13.89
2018-08-11T05:24:06.467Z,13.90
2018-08-11T05:25:06.450Z,14.00
2018-08-11T05:26:06.459Z,13.95
2018-08-11T05:27:06.433Z,13.85
2018-08-11T05:28:06.453Z,13.83
2018-08-11T05:29:06.413Z,13.85
2018-08-11T05:30:06.401Z,13.79
2018-08-11T05:31:06.408Z,13.85
2018-08-11T05:32:06.386Z,13.87
2018-08-11T05:33:06.380Z,13.81
2018-08-11T05:34:06.373Z,13.83
2018-08-11T05:35:06.434Z,13.81
2018-08-11T05:36:06.423Z,13.83
2018-08-11T05:37:06.337Z,13.79
2018-08-11T05:38:06.311Z,13.78
2018-08-11T05:39:06.323Z,13.72
2018-08-11T05:40:06.323Z,13.77
2018-08-11T05:41:06.297Z,13.83
2018-08-11T05:42:06.265Z,13.97
2018-08-11T05:43:06.275Z,13.89
2018-08-11T05:44:06.245Z,13.93
2018-08-11T05:45:06.248Z,13.93
2018-08-11T05:46:06.325Z,13.95
2018-08-11T05:47:06.209Z,13.96
2018-08-11T05:48:06.211Z,13.92
2018-08-11T05:49:06.231Z,13.92
2018-08-11T05:50:06.181Z,13.93
2018-08-11T05:51:06.193Z,13.86
2018-08-11T05:52:06.203Z,13.83
2018-08-11T05:53:06.154Z,13.95
2018-08-11T05:54:06.137Z,14.03
2018-08-11T05:55:06.140Z,14.05
2018-08-11T05:56:06.186Z,14.08
2018-08-11T05:57:06.108Z,14.12
2018-08-11T05:58:06.092Z,14.10
2018-08-11T05:59:06.280Z,14.08
2018-08-11T06:00:06.081Z,14.07
2018-08-11T06:01:06.084Z,14.20
2018-08-11T06:02:06.088Z,14.22
2018-08-11T06:03:06.041Z,14.35
2018-08-11T06:04:06.190Z,14.36
2018-08-11T06:05:06.019Z,14.36
2018-08-11T06:06:06.337Z,14.43
2018-08-11T06:07:06.001Z,14.45
2018-08-11T06:08:06.010Z,14.43
2018-08-11T06:09:06.066Z,14.45
2018-08-11T06:10:07.116Z,14.54
2018-08-11T06:11:06.195Z,14.55
2018-08-11T06:12:06.041Z,14.51
2018-08-11T06:13:05.928Z,14.62
2018-08-11T06:14:05.927Z,14.66
2018-08-11T06:15:06.151Z,14.51
2018-08-11T06:16:05.934Z,14.53
2018-08-11T06:17:05.888Z,14.51
2018-08-11T06:18:05.929Z,14.54
2018-08-11T06:19:05.904Z,14.55
2018-08-11T06:20:05.908Z,14.65
2018-08-11T06:21:05.907Z,14.68
2018-08-11T06:22:05.833Z,14.85
2018-08-11T06:23:05.825Z,14.88
2018-08-11T06:24:05.831Z,14.92
2018-08-11T06:25:05.799Z,14.89
2018-08-11T06:26:05.808Z,14.94
2018-08-11T06:27:05.790Z,14.92
2018-08-11T06:28:05.770Z,14.77
2018-08-11T06:29:05.758Z,14.77
2018-08-11T06:30:05.751Z,14.65
2018-08-11T06:31:05.759Z,14.73
2018-08-11T06:32:05.743Z,14.79
2018-08-11T06:33:05.782Z,14.91
2018-08-11T06:34:05.708Z,15.03
2018-08-11T06:35:05.735Z,15.03
2018-08-11T06:36:05.751Z,15.04
2018-08-11T06:37:05.671Z,15.06
2018-08-11T06:38:05.656Z,14.97
2018-08-11T06:39:05.652Z,15.07
2018-08-11T06:40:05.647Z,15.15
2018-08-11T06:41:05.849Z,15.21
2018-08-11T06:42:05.613Z,15.14
2018-08-11T06:43:05.602Z,15.21
2018-08-11T06:44:05.598Z,15.19
2018-08-11T06:45:05.605Z,15.31
2018-08-11T06:46:05.605Z,15.35
2018-08-11T06:47:05.611Z,15.42
2018-08-11T06:48:05.604Z,15.46
2018-08-11T06:49:05.603Z,15.43
2018-08-11T06:50:05.545Z,15.37
2018-08-11T06:51:05.561Z,15.33
2018-08-11T06:52:05.537Z,15.33
2018-08-11T06:53:05.592Z,15.29
2018-08-11T06:54:05.499Z,15.22
2018-08-11T06:55:05.529Z,15.28
2018-08-11T06:56:05.489Z,15.24
2018-08-11T06:57:05.450Z,15.22
2018-08-11T06:58:05.452Z,15.29
2018-08-11T06:59:05.444Z,15.25
2018-08-11T07:00:05.449Z,15.36
2018-08-11T07:01:05.517Z,15.29
2018-08-11T07:02:05.400Z,15.29
2018-08-11T07:03:05.383Z,15.24
2018-08-11T07:04:05.456Z,15.18
2018-08-11T07:05:05.429Z,15.15
2018-08-11T07:06:05.464Z,15.10
2018-08-11T07:07:05.617Z,14.97
2018-08-11T07:08:05.386Z,15.03
2018-08-11T07:09:05.324Z,15.02
2018-08-11T07:10:05.336Z,14.97
2018-08-11T07:11:05.335Z,14.92
2018-08-11T07:12:09.832Z,14.88
2018-08-11T07:13:05.487Z,14.73
2018-08-11T07:14:05.282Z,14.79
2018-08-11T07:15:05.252Z,14.89
2018-08-11T07:16:06.550Z,14.86
2018-08-11T07:17:05.237Z,15.02
2018-08-11T07:18:05.263Z,15.09
2018-08-11T07:19:05.244Z,15.15
2018-08-11T07:20:05.210Z,15.18
2018-08-11T07:21:05.212Z,15.22
2018-08-11T07:22:05.181Z,15.33
2018-08-11T07:23:05.188Z,15.33
2018-08-11T07:24:05.154Z,15.31
2018-08-11T07:25:05.146Z,15.25
2018-08-11T07:26:05.160Z,15.40
2018-08-11T07:27:05.148Z,15.52
2018-08-11T07:28:05.113Z,15.52
2018-08-11T07:29:05.101Z,15.51
2018-08-11T07:30:05.102Z,15.57
2018-08-11T07:31:05.106Z,15.62
2018-08-11T07:32:05.078Z,15.62
2018-08-11T07:33:05.076Z,15.75
2018-08-11T07:34:05.055Z,15.88
2018-08-11T07:35:05.043Z,16.09
2018-08-11T07:36:05.129Z,16.16
2018-08-11T07:37:05.013Z,16.41
2018-08-11T07:38:05.009Z,16.53
2018-08-11T07:39:04.996Z,16.66
2018-08-11T07:40:04.987Z,16.61
2018-08-11T07:41:04.994Z,16.51
2018-08-11T07:42:04.964Z,16.42
2018-08-11T07:43:04.952Z,16.35
2018-08-11T07:44:04.941Z,16.17
2018-08-11T07:45:04.937Z,16.17
2018-08-11T07:46:04.938Z,16.31
2018-08-11T07:47:04.910Z,16.31
2018-08-11T07:48:04.896Z,16.32
2018-08-11T07:49:04.887Z,16.13
2018-08-11T07:50:04.908Z,16.26
2018-08-11T07:51:05.380Z,16.42
2018-08-11T07:52:04.875Z,16.38
2018-08-11T07:53:04.896Z,16.43
2018-08-11T07:54:04.902Z,16.41
2018-08-11T07:55:04.825Z,16.41
2018-08-11T07:56:04.977Z,16.41
2018-08-11T07:57:04.798Z,16.66
2018-08-11T07:58:04.795Z,16.60
2018-08-11T07:59:04.785Z,16.64
2018-08-11T08:00:04.767Z,16.71
2018-08-11T08:01:04.777Z,16.99
2018-08-11T08:02:04.755Z,17.09
2018-08-11T08:03:04.738Z,17.33
2018-08-11T08:04:04.746Z,17.36
2018-08-11T08:05:04.719Z,17.52
2018-08-11T08:06:04.720Z,17.64
2018-08-11T08:07:04.692Z,17.64
2018-08-11T08:08:04.830Z,17.56
2018-08-11T08:09:04.697Z,17.63
2018-08-11T08:10:04.664Z,17.65
2018-08-11T08:11:04.678Z,17.70
2018-08-11T08:12:04.647Z,17.85
2018-08-11T08:13:04.638Z,17.71
2018-08-11T08:14:04.624Z,17.63
2018-08-11T08:15:04.616Z,17.52
2018-08-11T08:16:04.636Z,17.63
2018-08-11T08:17:04.621Z,17.87
2018-08-11T08:18:04.623Z,18.03
2018-08-11T08:19:04.561Z,18.15
2018-08-11T08:20:04.550Z,18.44
2018-08-11T08:21:04.556Z,18.52
2018-08-11T08:22:04.532Z,18.56
2018-08-11T08:23:04.533Z,18.59
2018-08-11T08:24:04.510Z,18.50
2018-08-11T08:25:04.523Z,18.28
2018-08-11T08:26:04.537Z,18.20
2018-08-11T08:27:04.490Z,18.19
2018-08-11T08:28:04.487Z,18.13
2018-08-11T08:29:04.451Z,18.04
2018-08-11T08:30:04.451Z,18.13
2018-08-11T08:31:04.454Z,18.23
2018-08-11T08:32:04.423Z,18.53
2018-08-11T08:33:04.408Z,18.74
2018-08-11T08:34:04.405Z,18.84
2018-08-11T08:35:04.394Z,18.75
2018-08-11T08:36:04.404Z,18.43
2018-08-11T08:37:04.372Z,18.23
2018-08-11T08:38:04.374Z,18.13
2018-08-11T08:39:04.347Z,18.13
2018-08-11T08:40:05.313Z,18.22
2018-08-11T08:41:04.360Z,18.53
2018-08-11T08:42:04.336Z,18.96
2018-08-11T08:43:04.306Z,19.08
2018-08-11T08:44:04.295Z,19.26
2018-08-11T08:45:04.291Z,19.59
2018-08-11T08:46:04.291Z,19.86
2018-08-11T08:47:04.265Z,19.94
2018-08-11T08:48:04.257Z,20.09
2018-08-11T08:49:04.242Z,19.96
2018-08-11T08:50:04.240Z,19.84
2018-08-11T08:51:04.246Z,19.63
2018-08-11T08:52:04.208Z,19.22
2018-08-11T08:53:04.193Z,18.93
2018-08-11T08:54:04.193Z,18.58
2018-08-11T08:55:04.182Z,18.35
2018-08-11T08:56:04.185Z,18.19
2018-08-11T08:57:04.160Z,18.56
2018-08-11T08:58:04.139Z,18.89
2018-08-11T08:59:04.150Z,19.31
2018-08-11T09:00:04.120Z,19.51
2018-08-11T09:01:04.131Z,19.63
2018-08-11T09:02:04.105Z,20.00
2018-08-11T09:03:04.090Z,20.40
2018-08-11T09:04:04.080Z,20.66
2018-08-11T09:05:04.079Z,20.78
2018-08-11T09:06:04.093Z,20.77
2018-08-11T09:07:04.046Z,20.67
2018-08-11T09:08:04.038Z,20.16
2018-08-11T09:09:04.037Z,19.66
2018-08-11T09:10:04.011Z,19.04
2018-08-11T09:11:04.020Z,18.73
2018-08-11T09:12:04.096Z,18.50
2018-08-11T09:13:03.988Z,18.55
2018-08-11T09:14:04.003Z,19.04
2018-08-11T09:15:03.961Z,19.27
2018-08-11T09:16:03.977Z,19.54
2018-08-11T09:17:03.960Z,19.86
2018-08-11T09:18:03.942Z,19.89
2018-08-11T09:19:03.923Z,20.04
2018-08-11T09:20:03.906Z,20.19
2018-08-11T09:21:03.937Z,20.29
2018-08-11T09:22:03.901Z,20.41
2018-08-11T09:23:03.875Z,20.52
2018-08-11T09:24:03.875Z,20.52
2018-08-11T09:25:03.896Z,20.75
2018-08-11T09:26:03.864Z,20.62
2018-08-11T09:27:03.859Z,20.62
2018-08-11T09:28:03.843Z,20.90
2018-08-11T09:29:03.813Z,21.11
2018-08-11T09:30:03.793Z,21.03
2018-08-11T09:31:03.803Z,20.74
2018-08-11T09:32:03.787Z,20.40
2018-08-11T09:33:03.762Z,20.21
2018-08-11T09:34:03.767Z,20.36
2018-08-11T09:35:03.743Z,20.34
2018-08-11T09:36:03.763Z,20.18
2018-08-11T09:37:03.718Z,20.34
2018-08-11T09:38:03.719Z,20.32
2018-08-11T09:39:03.707Z,20.50
2018-08-11T09:40:03.690Z,20.72
2018-08-11T09:41:03.750Z,20.58
2018-08-11T09:42:03.672Z,20.90
2018-08-11T09:43:03.655Z,21.21
2018-08-11T09:44:03.645Z,20.97
2018-08-11T09:45:03.634Z,21.11
2018-08-11T09:46:03.686Z,21.21
2018-08-11T09:47:03.613Z,21.06
2018-08-11T09:48:03.605Z,20.70
2018-08-11T09:49:03.595Z,20.36
2018-08-11T09:50:03.578Z,20.18
2018-08-11T09:51:03.587Z,20.07
2018-08-11T09:52:03.560Z,19.99
2018-08-11T09:53:03.551Z,19.88
2018-08-11T09:54:03.534Z,19.96
2018-08-11T09:55:03.538Z,19.96
2018-08-11T09:56:03.544Z,19.96
2018-08-11T09:57:03.505Z,19.92
2018-08-11T09:58:03.500Z,19.94
2018-08-11T09:59:03.484Z,20.00
2018-08-11T10:00:03.493Z,19.82
2018-08-11T10:01:03.491Z,19.85
2018-08-11T10:02:03.447Z,19.85
2018-08-11T10:03:03.450Z,19.66
2018-08-11T10:04:03.440Z,19.63
2018-08-11T10:05:03.474Z,19.56
2018-08-11T10:06:03.437Z,19.58
2018-08-11T10:07:03.445Z,19.44
2018-08-11T10:08:03.409Z,19.40
2018-08-11T10:09:03.376Z,19.54
2018-08-11T10:10:03.396Z,19.81
2018-08-11T10:11:03.405Z,20.07
2018-08-11T10:12:03.345Z,20.34
2018-08-11T10:13:03.336Z,20.67
2018-08-11T10:14:03.332Z,20.81
2018-08-11T10:15:03.321Z,20.99
2018-08-11T10:16:03.325Z,21.20
2018-08-11T10:17:03.285Z,21.24
2018-08-11T10:18:03.281Z,20.93
2018-08-11T10:19:03.270Z,20.70
2018-08-11T10:20:03.265Z,20.36
2018-08-11T10:21:03.270Z,20.21
2018-08-11T10:22:03.238Z,20.44
2018-08-11T10:23:03.223Z,20.40
2018-08-11T10:24:03.221Z,20.31
2018-08-11T10:25:03.204Z,20.24
2018-08-11T10:26:03.208Z,20.21
2018-08-11T10:27:03.178Z,19.99
2018-08-11T10:28:03.174Z,19.81
2018-08-11T10:29:03.158Z,19.81
2018-08-11T10:30:03.153Z,19.59
2018-08-11T10:31:03.164Z,19.58
2018-08-11T10:32:03.129Z,19.66
2018-08-11T10:33:03.120Z,19.77
2018-08-11T10:34:03.102Z,19.94
2018-08-11T10:35:03.106Z,20.10
2018-08-11T10:36:03.111Z,20.37
2018-08-11T10:37:03.069Z,20.50
2018-08-11T10:38:03.065Z,20.34
2018-08-11T10:39:03.059Z,20.18
2018-08-11T10:40:03.049Z,20.03
2018-08-11T10:41:03.048Z,20.07
2018-08-11T10:42:03.053Z,20.22
2018-08-11T10:43:03.012Z,20.44
2018-08-11T10:44:02.999Z,20.78
2018-08-11T10:45:02.993Z,21.06
2018-08-11T10:46:02.992Z,21.11
2018-08-11T10:47:02.982Z,21.32
2018-08-11T10:48:02.955Z,21.20
2018-08-11T10:49:02.947Z,21.25
2018-08-11T10:50:02.937Z,21.32
2018-08-11T10:51:02.944Z,21.54
2018-08-11T10:52:02.913Z,21.66
2018-08-11T10:53:02.905Z,21.58
2018-08-11T10:54:02.903Z,21.60
2018-08-11T10:55:02.885Z,21.85
2018-08-11T10:56:02.981Z,21.88
2018-08-11T10:57:02.864Z,21.89
2018-08-11T10:58:02.849Z,21.82
2018-08-11T10:59:02.870Z,21.80
2018-08-11T11:00:02.828Z,21.99
2018-08-11T11:01:02.842Z,22.08
2018-08-11T11:02:02.829Z,22.15
2018-08-11T11:03:02.804Z,22.08
2018-08-11T11:04:02.796Z,22.30
2018-08-11T11:05:02.775Z,22.44
2018-08-11T11:06:02.777Z,22.13
2018-08-11T11:07:02.750Z,21.62
2018-08-11T11:08:02.739Z,21.36
2018-08-11T11:09:02.726Z,21.42
2018-08-11T11:10:02.723Z,21.64
2018-08-11T11:11:02.728Z,21.82
2018-08-11T11:12:02.697Z,22.02
2018-08-11T11:13:02.687Z,21.85
2018-08-11T11:14:02.681Z,21.93
2018-08-11T11:15:02.668Z,21.70
2018-08-11T11:16:02.675Z,21.73
2018-08-11T11:17:02.771Z,21.88
2018-08-11T11:18:02.632Z,21.82
2018-08-11T11:19:02.624Z,21.96
2018-08-11T11:20:02.612Z,21.96
2018-08-11T11:21:02.618Z,22.06
2018-08-11T11:22:02.599Z,22.15
2018-08-11T11:23:02.583Z,22.32
2018-08-11T11:24:02.603Z,22.72
2018-08-11T11:25:02.815Z,22.85
2018-08-11T11:26:02.682Z,22.91
2018-08-11T11:27:02.543Z,23.24
2018-08-11T11:28:04.184Z,23.03
2018-08-11T11:29:02.540Z,22.94
2018-08-11T11:30:02.514Z,22.72
2018-08-11T11:31:02.537Z,22.32
2018-08-11T11:32:02.489Z,22.23
2018-08-11T11:33:02.480Z,22.26
2018-08-11T11:34:02.478Z,22.78
2018-08-11T11:35:02.461Z,23.62
2018-08-11T11:36:02.451Z,24.02
2018-08-11T11:37:02.511Z,23.68
2018-08-11T11:38:02.425Z,23.05
2018-08-11T11:39:02.419Z,22.70
2018-08-11T11:40:02.415Z,22.59
2018-08-11T11:41:02.397Z,22.41
2018-08-11T11:42:02.440Z,22.22
2018-08-11T11:43:02.380Z,22.93
2018-08-11T11:44:02.374Z,22.68
2018-08-11T11:45:02.369Z,22.53
2018-08-11T11:46:02.349Z,22.02
2018-08-11T11:47:02.361Z,21.83
2018-08-11T11:48:02.334Z,22.00
2018-08-11T11:49:02.334Z,21.92
2018-08-11T11:50:02.302Z,22.91
2018-08-11T11:51:02.293Z,23.48
2018-08-11T11:52:02.301Z,24.08
2018-08-11T11:53:02.273Z,24.85
2018-08-11T11:54:02.265Z,25.54
2018-08-11T11:55:02.257Z,26.19
2018-08-11T11:56:02.252Z,26.75
2018-08-11T11:57:02.255Z,27.36
2018-08-11T11:58:02.231Z,27.82
2018-08-11T11:59:02.211Z,26.80
2018-08-11T12:00:02.273Z,26.21
2018-08-11T12:01:02.203Z,25.26
2018-08-11T12:02:02.232Z,24.02
2018-08-11T12:03:02.174Z,23.39
2018-08-11T12:04:02.162Z,22.75
2018-08-11T12:05:02.183Z,22.22
2018-08-11T12:06:02.155Z,22.00
2018-08-11T12:07:02.176Z,21.77
2018-08-11T12:08:02.132Z,21.52
2018-08-11T12:09:02.124Z,21.46
2018-08-11T12:10:02.110Z,22.23
2018-08-11T12:11:02.090Z,22.44
2018-08-11T12:12:02.097Z,22.88
2018-08-11T12:13:02.075Z,22.81
2018-08-11T12:14:02.070Z,23.34
2018-08-11T12:15:02.056Z,24.68
2018-08-11T12:16:02.039Z,25.46
2018-08-11T12:17:02.060Z,26.07
2018-08-11T12:18:02.028Z,26.22
2018-08-11T12:19:02.018Z,26.43
2018-08-11T12:20:02.019Z,26.78
2018-08-11T12:21:01.993Z,27.15
2018-08-11T12:22:02.004Z,27.36
2018-08-11T12:23:01.968Z,28.00
2018-08-11T12:24:01.958Z,28.33
2018-08-11T12:25:01.952Z,28.60
2018-08-11T12:26:01.957Z,28.75
2018-08-11T12:27:01.982Z,28.89
2018-08-11T12:28:01.959Z,28.04
2018-08-11T12:29:01.915Z,28.35
2018-08-11T12:30:01.917Z,28.91
2018-08-11T12:31:01.946Z,29.90
2018-08-11T12:32:01.908Z,30.39
2018-08-11T12:33:01.877Z,30.47
2018-08-11T12:34:01.865Z,28.56
2018-08-11T12:35:01.855Z,27.93
2018-08-11T12:36:01.843Z,26.75
2018-08-11T12:37:01.858Z,26.00
2018-08-11T12:38:01.835Z,25.66
2018-08-11T12:39:01.853Z,25.48
2018-08-11T12:40:01.828Z,25.43
2018-08-11T12:41:01.799Z,25.77
2018-08-11T12:42:01.807Z,26.34
2018-08-11T12:43:01.775Z,27.00
2018-08-11T12:44:01.764Z,27.25
2018-08-11T12:45:01.755Z,27.93
2018-08-11T12:46:01.843Z,28.26
2018-08-11T12:47:01.765Z,28.85
2018-08-11T12:48:01.741Z,29.08
2018-08-11T12:49:01.717Z,29.50
2018-08-11T12:50:01.709Z,29.54
2018-08-11T12:51:01.701Z,28.85
2018-08-11T12:52:01.730Z,27.29